sensor_id;sensor_type;location;lat;lon;timestamp;temperature;humidity
71942;DHT22;59997;53.300;-6.260;2022-11-14T00:00:29;11.49;92.14
71942;DHT22;59997;53.300;-6.260;2022-11-14T00:02:58;11.54;92.21
71942;DHT22;59997;53.300;-6.260;2022-11-14T00:05:24;11.66;92.06
71942;DHT22;59997;53.300;-6.260;2022-11-14T00:07:49;11.74;91.57
71942;DHT22;59997;53.300;-6.260;2022-11-14T00:10:16;11.66;91.32
71942;DHT22;59997;53.300;-6.260;2022-11-14T00:12:41;11.66;91.21
71942;DHT22;59997;53.300;-6.260;2022-11-14T00:15:07;11.64;91.21
71942;DHT22;59997;53.300;-6.260;2022-11-14T00:17:33;11.62;91.10
71942;DHT22;59997;53.300;-6.260;2022-11-14T00:19:59;11.52;91.30
71942;DHT22;59997;53.300;-6.260;2022-11-14T00:22:25;11.49;91.42
71942;DHT22;59997;53.300;-6.260;2022-11-14T00:24:50;11.50;91.58
71942;DHT22;59997;53.300;-6.260;2022-11-14T00:27:16;11.57;91.41
71942;DHT22;59997;53.300;-6.260;2022-11-14T00:29:41;11.46;91.55
71942;DHT22;59997;53.300;-6.260;2022-11-14T00:32:07;11.42;91.60
71942;DHT22;59997;53.300;-6.260;2022-11-14T00:34:33;11.39;91.66
71942;DHT22;59997;53.300;-6.260;2022-11-14T00:36:58;11.43;91.03
71942;DHT22;59997;53.300;-6.260;2022-11-14T00:39:24;11.40;90.76
71942;DHT22;59997;53.300;-6.260;2022-11-14T00:41:51;11.33;91.04
71942;DHT22;59997;53.300;-6.260;2022-11-14T00:44:16;11.29;91.12
71942;DHT22;59997;53.300;-6.260;2022-11-14T00:46:42;11.29;91.20
71942;DHT22;59997;53.300;-6.260;2022-11-14T00:49:07;11.22;91.45
71942;DHT22;59997;53.300;-6.260;2022-11-14T00:51:33;11.22;91.56
71942;DHT22;59997;53.300;-6.260;2022-11-14T00:53:58;11.16;91.49
71942;DHT22;59997;53.300;-6.260;2022-11-14T00:56:24;11.14;91.57
71942;DHT22;59997;53.300;-6.260;2022-11-14T00:58:49;11.08;91.66
71942;DHT22;59997;53.300;-6.260;2022-11-14T01:01:15;11.14;91.61
71942;DHT22;59997;53.300;-6.260;2022-11-14T01:03:40;11.08;91.70
71942;DHT22;59997;53.300;-6.260;2022-11-14T01:06:09;11.04;91.80
71942;DHT22;59997;53.300;-6.260;2022-11-14T01:08:35;11.01;91.91
71942;DHT22;59997;53.300;-6.260;2022-11-14T01:11:08;10.98;92.03
71942;DHT22;59997;53.300;-6.260;2022-11-14T01:13:34;10.98;92.11
71942;DHT22;59997;53.300;-6.260;2022-11-14T01:16:00;10.97;92.04
71942;DHT22;59997;53.300;-6.260;2022-11-14T01:18:26;10.97;92.20
71942;DHT22;59997;53.300;-6.260;2022-11-14T01:20:52;10.95;92.21
71942;DHT22;59997;53.300;-6.260;2022-11-14T01:23:18;10.94;92.32
71942;DHT22;59997;53.300;-6.260;2022-11-14T01:25:43;10.93;92.38
71942;DHT22;59997;53.300;-6.260;2022-11-14T01:28:12;10.93;92.41
71942;DHT22;59997;53.300;-6.260;2022-11-14T01:30:38;10.95;92.39
71942;DHT22;59997;53.300;-6.260;2022-11-14T01:33:04;10.93;92.39
71942;DHT22;59997;53.300;-6.260;2022-11-14T01:35:31;10.90;92.46
71942;DHT22;59997;53.300;-6.260;2022-11-14T01:37:56;10.95;92.42
71942;DHT22;59997;53.300;-6.260;2022-11-14T01:40:22;10.90;92.43
71942;DHT22;59997;53.300;-6.260;2022-11-14T01:45:57;10.90;92.55
71942;DHT22;59997;53.300;-6.260;2022-11-14T01:48:48;11.00;92.29
71942;DHT22;59997;53.300;-6.260;2022-11-14T01:51:35;10.93;92.27
71942;DHT22;59997;53.300;-6.260;2022-11-14T01:54:06;10.81;92.32
71942;DHT22;59997;53.300;-6.260;2022-11-14T01:56:38;10.76;92.35
71942;DHT22;59997;53.300;-6.260;2022-11-14T01:59:08;10.73;92.44
71942;DHT22;59997;53.300;-6.260;2022-11-14T02:01:40;10.70;92.48
71942;DHT22;59997;53.300;-6.260;2022-11-14T02:04:06;10.74;92.56
71942;DHT22;59997;53.300;-6.260;2022-11-14T02:06:32;10.69;92.50
71942;DHT22;59997;53.300;-6.260;2022-11-14T02:09:03;10.67;92.55
71942;DHT22;59997;53.300;-6.260;2022-11-14T02:11:31;10.63;92.56
71942;DHT22;59997;53.300;-6.260;2022-11-14T02:13:57;10.63;92.61
71942;DHT22;59997;53.300;-6.260;2022-11-14T02:16:25;10.61;92.55
71942;DHT22;59997;53.300;-6.260;2022-11-14T02:18:50;10.64;92.62
71942;DHT22;59997;53.300;-6.260;2022-11-14T02:21:16;10.61;92.65
71942;DHT22;59997;53.300;-6.260;2022-11-14T02:23:41;10.63;92.61
71942;DHT22;59997;53.300;-6.260;2022-11-14T02:26:07;10.60;92.64
71942;DHT22;59997;53.300;-6.260;2022-11-14T02:28:32;10.60;92.64
71942;DHT22;59997;53.300;-6.260;2022-11-14T02:30:58;10.63;92.68
71942;DHT22;59997;53.300;-6.260;2022-11-14T02:33:23;10.60;92.77
71942;DHT22;59997;53.300;-6.260;2022-11-14T02:35:49;10.59;92.82
71942;DHT22;59997;53.300;-6.260;2022-11-14T02:38:15;10.69;92.79
71942;DHT22;59997;53.300;-6.260;2022-11-14T02:40:41;10.61;92.79
71942;DHT22;59997;53.300;-6.260;2022-11-14T02:43:06;10.59;92.79
71942;DHT22;59997;53.300;-6.260;2022-11-14T02:45:32;10.56;92.81
71942;DHT22;59997;53.300;-6.260;2022-11-14T02:47:57;10.57;92.82
71942;DHT22;59997;53.300;-6.260;2022-11-14T02:50:23;10.55;92.90
71942;DHT22;59997;53.300;-6.260;2022-11-14T02:52:48;10.59;92.94
71942;DHT22;59997;53.300;-6.260;2022-11-14T02:55:13;10.59;92.97
71942;DHT22;59997;53.300;-6.260;2022-11-14T02:57:39;10.71;93.08
71942;DHT22;59997;53.300;-6.260;2022-11-14T03:00:05;10.84;92.85
71942;DHT22;59997;53.300;-6.260;2022-11-14T03:02:30;10.84;92.79
71942;DHT22;59997;53.300;-6.260;2022-11-14T03:04:57;10.77;92.78
71942;DHT22;59997;53.300;-6.260;2022-11-14T03:07:23;10.71;92.83
71942;DHT22;59997;53.300;-6.260;2022-11-14T03:09:48;10.67;92.87
71942;DHT22;59997;53.300;-6.260;2022-11-14T03:12:16;10.61;92.86
71942;DHT22;59997;53.300;-6.260;2022-11-14T03:14:42;10.59;92.92
71942;DHT22;59997;53.300;-6.260;2022-11-14T03:17:08;10.55;92.95
71942;DHT22;59997;53.300;-6.260;2022-11-14T03:19:33;10.55;92.91
71942;DHT22;59997;53.300;-6.260;2022-11-14T03:21:58;10.56;92.91
71942;DHT22;59997;53.300;-6.260;2022-11-14T03:24:24;10.55;92.89
71942;DHT22;59997;53.300;-6.260;2022-11-14T03:26:49;10.55;92.98
71942;DHT22;59997;53.300;-6.260;2022-11-14T03:29:15;10.53;93.04
71942;DHT22;59997;53.300;-6.260;2022-11-14T03:31:40;10.52;93.04
71942;DHT22;59997;53.300;-6.260;2022-11-14T03:34:07;10.53;93.05
71942;DHT22;59997;53.300;-6.260;2022-11-14T03:36:33;10.53;93.06
71942;DHT22;59997;53.300;-6.260;2022-11-14T03:38:59;10.53;93.06
71942;DHT22;59997;53.300;-6.260;2022-11-14T03:41:24;10.50;93.06
71942;DHT22;59997;53.300;-6.260;2022-11-14T03:43:50;10.50;93.12
71942;DHT22;59997;53.300;-6.260;2022-11-14T03:46:15;10.53;93.10
71942;DHT22;59997;53.300;-6.260;2022-11-14T03:48:41;10.55;93.09
71942;DHT22;59997;53.300;-6.260;2022-11-14T03:51:06;10.50;93.12
71942;DHT22;59997;53.300;-6.260;2022-11-14T03:53:32;10.52;93.12
71942;DHT22;59997;53.300;-6.260;2022-11-14T03:55:57;10.50;93.06
71942;DHT22;59997;53.300;-6.260;2022-11-14T03:58:23;10.52;93.08
71942;DHT22;59997;53.300;-6.260;2022-11-14T04:00:49;10.53;93.09
71942;DHT22;59997;53.300;-6.260;2022-11-14T04:03:15;10.52;93.10
71942;DHT22;59997;53.300;-6.260;2022-11-14T04:05:43;10.56;93.16
71942;DHT22;59997;53.300;-6.260;2022-11-14T04:08:09;10.56;93.18
71942;DHT22;59997;53.300;-6.260;2022-11-14T04:10:34;10.57;93.11
71942;DHT22;59997;53.300;-6.260;2022-11-14T04:13:03;10.56;93.09
71942;DHT22;59997;53.300;-6.260;2022-11-14T04:15:29;10.55;93.07
71942;DHT22;59997;53.300;-6.260;2022-11-14T04:17:54;10.49;93.04
71942;DHT22;59997;53.300;-6.260;2022-11-14T04:20:20;10.45;93.10
71942;DHT22;59997;53.300;-6.260;2022-11-14T04:22:45;10.45;93.02
71942;DHT22;59997;53.300;-6.260;2022-11-14T04:25:11;10.42;93.05
71942;DHT22;59997;53.300;-6.260;2022-11-14T04:27:36;10.38;93.04
71942;DHT22;59997;53.300;-6.260;2022-11-14T04:30:03;10.36;93.02
71942;DHT22;59997;53.300;-6.260;2022-11-14T04:32:28;10.39;93.04
71942;DHT22;59997;53.300;-6.260;2022-11-14T04:34:54;10.35;93.01
71942;DHT22;59997;53.300;-6.260;2022-11-14T04:37:20;10.31;93.01
71942;DHT22;59997;53.300;-6.260;2022-11-14T04:39:45;10.32;93.06
71942;DHT22;59997;53.300;-6.260;2022-11-14T04:42:10;10.31;93.08
71942;DHT22;59997;53.300;-6.260;2022-11-14T04:44:36;10.38;93.05
71942;DHT22;59997;53.300;-6.260;2022-11-14T04:47:01;10.32;93.04
71942;DHT22;59997;53.300;-6.260;2022-11-14T04:49:27;10.32;93.04
71942;DHT22;59997;53.300;-6.260;2022-11-14T04:51:52;10.29;93.05
71942;DHT22;59997;53.300;-6.260;2022-11-14T04:54:17;10.26;93.06
71942;DHT22;59997;53.300;-6.260;2022-11-14T04:56:43;10.24;93.05
71942;DHT22;59997;53.300;-6.260;2022-11-14T04:59:08;10.22;93.06
71942;DHT22;59997;53.300;-6.260;2022-11-14T05:01:34;10.18;93.11
71942;DHT22;59997;53.300;-6.260;2022-11-14T05:03:59;10.14;93.09
71942;DHT22;59997;53.300;-6.260;2022-11-14T05:06:25;10.15;93.15
71942;DHT22;59997;53.300;-6.260;2022-11-14T05:08:50;10.11;93.13
71942;DHT22;59997;53.300;-6.260;2022-11-14T05:11:17;10.08;93.17
71942;DHT22;59997;53.300;-6.260;2022-11-14T05:13:43;10.08;93.15
71942;DHT22;59997;53.300;-6.260;2022-11-14T05:16:09;10.05;93.20
71942;DHT22;59997;53.300;-6.260;2022-11-14T05:18:35;10.05;93.18
71942;DHT22;59997;53.300;-6.260;2022-11-14T05:21:01;10.05;93.15
71942;DHT22;59997;53.300;-6.260;2022-11-14T05:23:27;10.00;93.13
71942;DHT22;59997;53.300;-6.260;2022-11-14T05:28:24;9.95;93.13
71942;DHT22;59997;53.300;-6.260;2022-11-14T05:30:50;9.90;93.14
71942;DHT22;59997;53.300;-6.260;2022-11-14T05:33:15;9.91;93.02
71942;DHT22;59997;53.300;-6.260;2022-11-14T05:35:41;9.87;93.06
71942;DHT22;59997;53.300;-6.260;2022-11-14T05:38:07;9.89;93.00
71942;DHT22;59997;53.300;-6.260;2022-11-14T05:40:32;9.86;92.97
71942;DHT22;59997;53.300;-6.260;2022-11-14T05:42:58;9.83;93.05
71942;DHT22;59997;53.300;-6.260;2022-11-14T05:45:23;9.77;93.06
71942;DHT22;59997;53.300;-6.260;2022-11-14T05:47:51;9.74;93.07
71942;DHT22;59997;53.300;-6.260;2022-11-14T05:50:18;9.72;93.14
71942;DHT22;59997;53.300;-6.260;2022-11-14T05:52:43;9.73;93.18
71942;DHT22;59997;53.300;-6.260;2022-11-14T05:55:09;9.76;93.14
71942;DHT22;59997;53.300;-6.260;2022-11-14T05:57:34;9.74;93.15
71942;DHT22;59997;53.300;-6.260;2022-11-14T06:00:00;9.77;93.07
71942;DHT22;59997;53.300;-6.260;2022-11-14T06:02:25;9.76;93.05
71942;DHT22;59997;53.300;-6.260;2022-11-14T06:04:50;9.72;93.07
71942;DHT22;59997;53.300;-6.260;2022-11-14T06:07:16;9.69;93.08
71942;DHT22;59997;53.300;-6.260;2022-11-14T06:09:41;9.63;93.13
71942;DHT22;59997;53.300;-6.260;2022-11-14T06:12:07;9.62;93.13
71942;DHT22;59997;53.300;-6.260;2022-11-14T06:14:32;9.60;93.19
71942;DHT22;59997;53.300;-6.260;2022-11-14T06:16:58;9.59;93.19
71942;DHT22;59997;53.300;-6.260;2022-11-14T06:19:23;9.55;93.20
71942;DHT22;59997;53.300;-6.260;2022-11-14T06:21:49;9.56;93.23
71942;DHT22;59997;53.300;-6.260;2022-11-14T06:24:14;9.56;93.24
71942;DHT22;59997;53.300;-6.260;2022-11-14T06:26:40;9.55;93.23
71942;DHT22;59997;53.300;-6.260;2022-11-14T06:29:06;9.49;93.23
71942;DHT22;59997;53.300;-6.260;2022-11-14T06:31:32;9.45;93.30
71942;DHT22;59997;53.300;-6.260;2022-11-14T06:33:57;9.48;93.29
71942;DHT22;59997;53.300;-6.260;2022-11-14T06:36:23;9.43;93.31
71942;DHT22;59997;53.300;-6.260;2022-11-14T06:38:48;9.41;93.31
71942;DHT22;59997;53.300;-6.260;2022-11-14T06:41:19;9.38;93.34
71942;DHT22;59997;53.300;-6.260;2022-11-14T06:43:46;9.32;93.31
71942;DHT22;59997;53.300;-6.260;2022-11-14T06:46:15;9.34;93.41
71942;DHT22;59997;53.300;-6.260;2022-11-14T06:48:42;9.31;93.41
71942;DHT22;59997;53.300;-6.260;2022-11-14T06:51:09;9.28;93.44
71942;DHT22;59997;53.300;-6.260;2022-11-14T06:53:36;9.25;93.41
71942;DHT22;59997;53.300;-6.260;2022-11-14T06:56:02;9.27;93.43
71942;DHT22;59997;53.300;-6.260;2022-11-14T06:58:37;9.31;93.54
71942;DHT22;59997;53.300;-6.260;2022-11-14T07:01:05;9.34;93.56
71942;DHT22;59997;53.300;-6.260;2022-11-14T07:03:30;9.35;93.56
71942;DHT22;59997;53.300;-6.260;2022-11-14T07:05:59;9.39;93.56
71942;DHT22;59997;53.300;-6.260;2022-11-14T07:08:25;9.36;93.52
71942;DHT22;59997;53.300;-6.260;2022-11-14T07:10:50;9.38;93.50
71942;DHT22;59997;53.300;-6.260;2022-11-14T07:13:16;9.34;93.47
71942;DHT22;59997;53.300;-6.260;2022-11-14T07:15:50;9.31;93.47
71942;DHT22;59997;53.300;-6.260;2022-11-14T07:18:15;9.34;93.48
71942;DHT22;59997;53.300;-6.260;2022-11-14T07:20:41;9.43;93.50
71942;DHT22;59997;53.300;-6.260;2022-11-14T07:23:06;9.48;93.42
71942;DHT22;59997;53.300;-6.260;2022-11-14T07:25:32;9.45;93.44
71942;DHT22;59997;53.300;-6.260;2022-11-14T07:27:57;9.49;93.44
71942;DHT22;59997;53.300;-6.260;2022-11-14T07:30:23;9.49;93.40
71942;DHT22;59997;53.300;-6.260;2022-11-14T07:32:54;9.48;93.44
71942;DHT22;59997;53.300;-6.260;2022-11-14T07:35:20;9.50;93.40
71942;DHT22;59997;53.300;-6.260;2022-11-14T07:37:46;9.50;93.40
71942;DHT22;59997;53.300;-6.260;2022-11-14T07:40:11;9.53;93.36
71942;DHT22;59997;53.300;-6.260;2022-11-14T07:42:37;9.50;93.37
71942;DHT22;59997;53.300;-6.260;2022-11-14T07:45:02;9.49;93.39
71942;DHT22;59997;53.300;-6.260;2022-11-14T07:47:28;9.43;93.38
71942;DHT22;59997;53.300;-6.260;2022-11-14T07:49:53;9.39;93.42
71942;DHT22;59997;53.300;-6.260;2022-11-14T07:52:19;9.39;93.48
71942;DHT22;59997;53.300;-6.260;2022-11-14T07:54:44;9.38;93.42
71942;DHT22;59997;53.300;-6.260;2022-11-14T07:57:10;9.36;93.44
71942;DHT22;59997;53.300;-6.260;2022-11-14T07:59:35;9.42;93.52
71942;DHT22;59997;53.300;-6.260;2022-11-14T08:02:02;9.55;93.47
71942;DHT22;59997;53.300;-6.260;2022-11-14T08:04:27;9.49;93.45
71942;DHT22;59997;53.300;-6.260;2022-11-14T08:06:53;9.50;93.40
71942;DHT22;59997;53.300;-6.260;2022-11-14T08:09:18;9.48;93.40
71942;DHT22;59997;53.300;-6.260;2022-11-14T08:11:44;9.52;93.44
71942;DHT22;59997;53.300;-6.260;2022-11-14T08:14:12;9.53;93.42
71942;DHT22;59997;53.300;-6.260;2022-11-14T08:16:37;9.53;93.40
71942;DHT22;59997;53.300;-6.260;2022-11-14T08:19:04;9.53;93.39
71942;DHT22;59997;53.300;-6.260;2022-11-14T08:21:30;9.52;93.36
71942;DHT22;59997;53.300;-6.260;2022-11-14T08:23:55;9.55;93.38
71942;DHT22;59997;53.300;-6.260;2022-11-14T08:26:21;9.56;93.43
71942;DHT22;59997;53.300;-6.260;2022-11-14T08:28:46;9.59;93.40
71942;DHT22;59997;53.300;-6.260;2022-11-14T08:31:12;9.65;93.44
71942;DHT22;59997;53.300;-6.260;2022-11-14T08:33:38;9.66;93.45
71942;DHT22;59997;53.300;-6.260;2022-11-14T08:36:05;9.67;93.41
71942;DHT22;59997;53.300;-6.260;2022-11-14T08:38:32;9.72;93.40
71942;DHT22;59997;53.300;-6.260;2022-11-14T08:41:01;9.76;93.37
71942;DHT22;59997;53.300;-6.260;2022-11-14T08:43:28;9.79;93.41
71942;DHT22;59997;53.300;-6.260;2022-11-14T08:46:01;9.80;93.41
71942;DHT22;59997;53.300;-6.260;2022-11-14T08:48:27;9.82;93.40
71942;DHT22;59997;53.300;-6.260;2022-11-14T08:50:52;9.97;93.34
71942;DHT22;59997;53.300;-6.260;2022-11-14T08:53:19;10.02;93.19
71942;DHT22;59997;53.300;-6.260;2022-11-14T08:55:45;10.04;93.15
71942;DHT22;59997;53.300;-6.260;2022-11-14T08:58:12;10.19;93.16
71942;DHT22;59997;53.300;-6.260;2022-11-14T09:00:38;10.46;92.85
71942;DHT22;59997;53.300;-6.260;2022-11-14T09:03:10;10.50;92.77
71942;DHT22;59997;53.300;-6.260;2022-11-14T09:05:38;10.63;92.14
71942;DHT22;59997;53.300;-6.260;2022-11-14T09:08:04;10.66;92.16
71942;DHT22;59997;53.300;-6.260;2022-11-14T09:10:30;10.56;92.37
71942;DHT22;59997;53.300;-6.260;2022-11-14T09:12:59;10.66;92.22
71942;DHT22;59997;53.300;-6.260;2022-11-14T09:15:27;10.56;92.32
71942;DHT22;59997;53.300;-6.260;2022-11-14T09:17:53;10.55;92.42
71942;DHT22;59997;53.300;-6.260;2022-11-14T09:20:20;10.50;92.44
71942;DHT22;59997;53.300;-6.260;2022-11-14T09:22:45;10.46;92.53
71942;DHT22;59997;53.300;-6.260;2022-11-14T09:25:11;10.56;92.44
71942;DHT22;59997;53.300;-6.260;2022-11-14T09:27:37;10.52;92.44
71942;DHT22;59997;53.300;-6.260;2022-11-14T09:30:03;10.53;92.51
71942;DHT22;59997;53.300;-6.260;2022-11-14T09:32:28;10.59;92.54
71942;DHT22;59997;53.300;-6.260;2022-11-14T09:34:54;10.74;92.48
71942;DHT22;59997;53.300;-6.260;2022-11-14T09:37:19;10.78;92.43
71942;DHT22;59997;53.300;-6.260;2022-11-14T09:39:45;10.74;92.15
71942;DHT22;59997;53.300;-6.260;2022-11-14T09:44:48;10.74;92.22
71942;DHT22;59997;53.300;-6.260;2022-11-14T09:47:22;10.74;92.15
71942;DHT22;59997;53.300;-6.260;2022-11-14T09:49:50;10.67;92.20
71942;DHT22;59997;53.300;-6.260;2022-11-14T09:52:36;10.67;92.31
71942;DHT22;59997;53.300;-6.260;2022-11-14T09:57:34;10.81;92.30
71942;DHT22;59997;53.300;-6.260;2022-11-14T10:00:00;10.88;92.17
71942;DHT22;59997;53.300;-6.260;2022-11-14T10:11:22;11.08;90.79
71942;DHT22;59997;53.300;-6.260;2022-11-14T10:14:02;11.21;89.95
71942;DHT22;59997;53.300;-6.260;2022-11-14T10:16:48;11.30;90.42
71942;DHT22;59997;53.300;-6.260;2022-11-14T10:19:24;11.40;90.43
71942;DHT22;59997;53.300;-6.260;2022-11-14T10:21:53;11.44;90.82
71942;DHT22;59997;53.300;-6.260;2022-11-14T10:25:00;11.49;89.68
71942;DHT22;59997;53.300;-6.260;2022-11-14T10:27:35;11.62;90.21
71942;DHT22;59997;53.300;-6.260;2022-11-14T10:30:11;11.64;89.29
71942;DHT22;59997;53.300;-6.260;2022-11-14T10:40:54;11.43;86.96
71942;DHT22;59997;53.300;-6.260;2022-11-14T10:43:31;11.33;87.20
71942;DHT22;59997;53.300;-6.260;2022-11-14T10:46:06;11.22;87.87
71942;DHT22;59997;53.300;-6.260;2022-11-14T10:48:42;11.08;87.83
71942;DHT22;59997;53.300;-6.260;2022-11-14T10:54:01;11.18;87.60
71942;DHT22;59997;53.300;-6.260;2022-11-14T10:56:27;11.28;87.80
71942;DHT22;59997;53.300;-6.260;2022-11-14T10:58:54;11.32;86.80
71942;DHT22;59997;53.300;-6.260;2022-11-14T11:01:37;11.37;87.04
71942;DHT22;59997;53.300;-6.260;2022-11-14T11:06:51;11.35;86.59
71942;DHT22;59997;53.300;-6.260;2022-11-14T11:09:25;11.33;86.09
71942;DHT22;59997;53.300;-6.260;2022-11-14T11:12:18;11.33;86.31
71942;DHT22;59997;53.300;-6.260;2022-11-14T11:14:46;11.49;85.88
71942;DHT22;59997;53.300;-6.260;2022-11-14T11:17:17;12.21;85.81
71942;DHT22;59997;53.300;-6.260;2022-11-14T11:19:45;12.51;84.14
71942;DHT22;59997;53.300;-6.260;2022-11-14T11:22:36;12.74;83.80
71942;DHT22;59997;53.300;-6.260;2022-11-14T11:25:21;14.48;80.57
71942;DHT22;59997;53.300;-6.260;2022-11-14T11:28:03;15.63;72.96
71942;DHT22;59997;53.300;-6.260;2022-11-14T11:30:29;16.22;68.84
71942;DHT22;59997;53.300;-6.260;2022-11-14T11:32:54;16.44;72.04
71942;DHT22;59997;53.300;-6.260;2022-11-14T11:35:20;16.25;67.80
71942;DHT22;59997;53.300;-6.260;2022-11-14T11:37:52;16.56;68.03
71942;DHT22;59997;53.300;-6.260;2022-11-14T11:40:23;16.45;69.65
71942;DHT22;59997;53.300;-6.260;2022-11-14T11:42:56;16.34;69.57
71942;DHT22;59997;53.300;-6.260;2022-11-14T11:45:22;16.52;67.56
71942;DHT22;59997;53.300;-6.260;2022-11-14T11:48:18;16.56;68.93
71942;DHT22;59997;53.300;-6.260;2022-11-14T11:50:44;16.69;68.04
71942;DHT22;59997;53.300;-6.260;2022-11-14T11:53:21;16.62;67.97
71942;DHT22;59997;53.300;-6.260;2022-11-14T11:55:55;16.41;65.97
71942;DHT22;59997;53.300;-6.260;2022-11-14T11:58:25;16.21;64.48
71942;DHT22;59997;53.300;-6.260;2022-11-14T12:00:53;16.49;66.62
71942;DHT22;59997;53.300;-6.260;2022-11-14T12:03:25;16.60;68.96
71942;DHT22;59997;53.300;-6.260;2022-11-14T12:06:14;17.03;66.96
71942;DHT22;59997;53.300;-6.260;2022-11-14T12:11:26;17.34;66.37
71942;DHT22;59997;53.300;-6.260;2022-11-14T12:22:24;17.69;63.51
71942;DHT22;59997;53.300;-6.260;2022-11-14T12:30:35;15.45;65.88
71942;DHT22;59997;53.300;-6.260;2022-11-14T12:33:10;15.40;66.99
71942;DHT22;59997;53.300;-6.260;2022-11-14T12:35:37;15.07;66.65
71942;DHT22;59997;53.300;-6.260;2022-11-14T12:38:14;14.92;70.74
71942;DHT22;59997;53.300;-6.260;2022-11-14T12:40:54;14.71;67.27
71942;DHT22;59997;53.300;-6.260;2022-11-14T12:43:37;14.73;67.62
71942;DHT22;59997;53.300;-6.260;2022-11-14T12:46:12;14.67;69.77
71942;DHT22;59997;53.300;-6.260;2022-11-14T12:48:41;14.57;69.31
71942;DHT22;59997;53.300;-6.260;2022-11-14T12:53:56;13.41;69.43
71942;DHT22;59997;53.300;-6.260;2022-11-14T13:02:05;12.82;72.50
71942;DHT22;59997;53.300;-6.260;2022-11-14T13:10:23;12.68;73.09
71942;DHT22;59997;53.300;-6.260;2022-11-14T13:13:09;12.71;71.09
71942;DHT22;59997;53.300;-6.260;2022-11-14T13:15:57;12.67;71.03
71942;DHT22;59997;53.300;-6.260;2022-11-14T13:19:00;12.60;71.11
71942;DHT22;59997;53.300;-6.260;2022-11-14T13:29:50;12.19;73.62
71942;DHT22;59997;53.300;-6.260;2022-11-14T13:35:10;12.61;73.50
71942;DHT22;59997;53.300;-6.260;2022-11-14T13:51:23;12.13;73.76
71942;DHT22;59997;53.300;-6.260;2022-11-14T13:53:50;12.01;73.22
71942;DHT22;59997;53.300;-6.260;2022-11-14T13:56:48;11.91;74.65
71942;DHT22;59997;53.300;-6.260;2022-11-14T14:07:54;11.89;71.93
71942;DHT22;59997;53.300;-6.260;2022-11-14T14:21:04;11.37;73.13
71942;DHT22;59997;53.300;-6.260;2022-11-14T14:23:52;11.39;72.70
71942;DHT22;59997;53.300;-6.260;2022-11-14T14:32:16;11.33;75.36
71942;DHT22;59997;53.300;-6.260;2022-11-14T14:34:41;11.25;74.93
71942;DHT22;59997;53.300;-6.260;2022-11-14T14:37:25;11.08;76.14
71942;DHT22;59997;53.300;-6.260;2022-11-14T14:39:58;10.93;76.67
71942;DHT22;59997;53.300;-6.260;2022-11-14T14:42:26;10.87;74.89
71942;DHT22;59997;53.300;-6.260;2022-11-14T14:44:53;10.83;75.00
71942;DHT22;59997;53.300;-6.260;2022-11-14T14:50:02;10.73;75.57
71942;DHT22;59997;53.300;-6.260;2022-11-14T14:52:31;10.67;75.63
71942;DHT22;59997;53.300;-6.260;2022-11-14T14:54:57;10.56;76.29
71942;DHT22;59997;53.300;-6.260;2022-11-14T14:57:27;10.52;76.39
71942;DHT22;59997;53.300;-6.260;2022-11-14T15:00:21;10.41;75.91
71942;DHT22;59997;53.300;-6.260;2022-11-14T15:02:52;10.39;75.90
71942;DHT22;59997;53.300;-6.260;2022-11-14T15:05:26;10.35;76.35
71942;DHT22;59997;53.300;-6.260;2022-11-14T15:07:59;10.19;77.29
71942;DHT22;59997;53.300;-6.260;2022-11-14T15:10:28;10.02;77.23
71942;DHT22;59997;53.300;-6.260;2022-11-14T15:12:55;9.98;77.25
71942;DHT22;59997;53.300;-6.260;2022-11-14T15:15:22;9.91;77.99
71942;DHT22;59997;53.300;-6.260;2022-11-14T15:17:51;9.86;78.97
71942;DHT22;59997;53.300;-6.260;2022-11-14T15:20:35;9.79;78.75
71942;DHT22;59997;53.300;-6.260;2022-11-14T15:25:37;9.87;79.00
71942;DHT22;59997;53.300;-6.260;2022-11-14T15:28:03;9.91;78.47
71942;DHT22;59997;53.300;-6.260;2022-11-14T15:30:31;9.90;78.43
71942;DHT22;59997;53.300;-6.260;2022-11-14T15:33:01;9.89;78.34
71942;DHT22;59997;53.300;-6.260;2022-11-14T15:35:28;9.63;79.97
71942;DHT22;59997;53.300;-6.260;2022-11-14T15:38:24;9.52;80.92
71942;DHT22;59997;53.300;-6.260;2022-11-14T15:48:54;9.28;81.12
71942;DHT22;59997;53.300;-6.260;2022-11-14T15:51:42;9.28;81.27
71942;DHT22;59997;53.300;-6.260;2022-11-14T15:56:51;9.08;80.79
71942;DHT22;59997;53.300;-6.260;2022-11-14T15:59:17;9.07;80.87
71942;DHT22;59997;53.300;-6.260;2022-11-14T16:01:44;9.07;79.83
71942;DHT22;59997;53.300;-6.260;2022-11-14T16:04:16;9.04;80.04
71942;DHT22;59997;53.300;-6.260;2022-11-14T16:06:43;8.80;80.75
71942;DHT22;59997;53.300;-6.260;2022-11-14T16:09:14;8.51;81.49
71942;DHT22;59997;53.300;-6.260;2022-11-14T16:11:40;8.42;81.23
71942;DHT22;59997;53.300;-6.260;2022-11-14T16:14:06;8.33;81.52
71942;DHT22;59997;53.300;-6.260;2022-11-14T16:16:31;8.33;82.35
71942;DHT22;59997;53.300;-6.260;2022-11-14T16:18:57;8.20;83.23
71942;DHT22;59997;53.300;-6.260;2022-11-14T16:21:22;8.20;84.19
71942;DHT22;59997;53.300;-6.260;2022-11-14T16:23:48;8.31;84.86
71942;DHT22;59997;53.300;-6.260;2022-11-14T16:26:14;8.28;85.15
71942;DHT22;59997;53.300;-6.260;2022-11-14T16:28:39;8.27;85.01
71942;DHT22;59997;53.300;-6.260;2022-11-14T16:31:12;8.30;84.68
71942;DHT22;59997;53.300;-6.260;2022-11-14T16:33:38;8.23;84.84
71942;DHT22;59997;53.300;-6.260;2022-11-14T16:36:03;7.97;85.09
71942;DHT22;59997;53.300;-6.260;2022-11-14T16:38:29;7.92;85.24
71942;DHT22;59997;53.300;-6.260;2022-11-14T16:40:54;7.68;85.62
71942;DHT22;59997;53.300;-6.260;2022-11-14T16:43:20;7.67;85.75
71942;DHT22;59997;53.300;-6.260;2022-11-14T16:45:46;7.52;86.10
71942;DHT22;59997;53.300;-6.260;2022-11-14T16:48:11;7.43;86.50
71942;DHT22;59997;53.300;-6.260;2022-11-14T16:50:37;7.68;86.35
71942;DHT22;59997;53.300;-6.260;2022-11-14T16:53:02;7.62;86.06
71942;DHT22;59997;53.300;-6.260;2022-11-14T16:55:28;7.61;86.28
71942;DHT22;59997;53.300;-6.260;2022-11-14T16:57:54;7.64;85.85
71942;DHT22;59997;53.300;-6.260;2022-11-14T17:00:20;7.58;86.41
71942;DHT22;59997;53.300;-6.260;2022-11-14T17:02:45;7.87;85.54
71942;DHT22;59997;53.300;-6.260;2022-11-14T17:05:12;7.96;85.29
71942;DHT22;59997;53.300;-6.260;2022-11-14T17:07:37;8.06;84.99
71942;DHT22;59997;53.300;-6.260;2022-11-14T17:10:04;8.06;84.72
71942;DHT22;59997;53.300;-6.260;2022-11-14T17:12:31;7.85;85.46
71942;DHT22;59997;53.300;-6.260;2022-11-14T17:14:56;7.82;85.60
71942;DHT22;59997;53.300;-6.260;2022-11-14T17:17:22;7.75;85.83
71942;DHT22;59997;53.300;-6.260;2022-11-14T17:19:48;7.82;85.88
71942;DHT22;59997;53.300;-6.260;2022-11-14T17:22:15;7.85;85.73
71942;DHT22;59997;53.300;-6.260;2022-11-14T17:24:41;7.86;85.72
71942;DHT22;59997;53.300;-6.260;2022-11-14T17:27:07;7.75;85.69
71942;DHT22;59997;53.300;-6.260;2022-11-14T17:29:33;7.72;85.71
71942;DHT22;59997;53.300;-6.260;2022-11-14T17:31:58;7.79;85.26
71942;DHT22;59997;53.300;-6.260;2022-11-14T17:34:25;7.97;84.77
71942;DHT22;59997;53.300;-6.260;2022-11-14T17:36:51;8.07;84.55
71942;DHT22;59997;53.300;-6.260;2022-11-14T17:39:16;8.03;84.78